»·PEaware :: SWA2498 KLAS-KPDX

SWA2498 :: KLAS-KPDX

FLIGHT INFORMATION

Flight Status: Arrived
Operator:
Southwest Airlines
More flights by this operator :: More flights under this callsign
Pilot: Scott M. (2887)
Aircraft: BOEING 737-700
(B737)
More flights by this aircraft type
Origin: KLAS McCarran Intl
United States
Destination: KPDX Portland Intl
United States
More flights between these airports :: More routes between these airports
Route: +SHEAD1 OAL J92 YERIN SOERN TMBRS2
File this flight plan on PilotEdge
Remarks:
Altitude:
(Current/Filed)
34,000ft
Speed:
(Current/Filed)
430kts
Departed: 12-Nov-19 08:42 AM
Arrived: 12-Nov-19 10:41 AM
Distance/Time
Traveled:
662nm/1:59
Distance/Time
To Go:
Arrived

Flight Plot

Page will automatically refresh every two minutes.

Flight plan parsing failed; only flown route is shown


Map Options




Map Legend


Flown Route
Filed Route
Departure Airport
Arrival Airport
Navaid (VOR, NDB)
Fix

Horizontal Profiles

Position Reports

Time Latitude Longitude Heading Altitude Ground
Speed
12-Nov-19 07:44 36.080252 -115.147361 66 2122ft 0kts
12-Nov-19 07:45 36.080252 -115.147361 66 2122ft 0kts
12-Nov-19 07:46 36.080252 -115.147361 66 2122ft 0kts
12-Nov-19 07:47 36.080252 -115.147361 66 2122ft 0kts
12-Nov-19 07:48 36.080252 -115.147361 66 2122ft 0kts
12-Nov-19 07:49 36.080252 -115.147361 66 2122ft 0kts
12-Nov-19 07:50 36.080252 -115.147361 66 2122ft 0kts
12-Nov-19 07:51 36.080252 -115.147361 66 2122ft 0kts
12-Nov-19 07:52 36.080252 -115.147361 66 2122ft 0kts
12-Nov-19 07:53 36.080252 -115.147361 66 2122ft 0kts
12-Nov-19 07:54 36.080252 -115.147361 66 2123ft 0kts
12-Nov-19 07:55 36.080252 -115.147361 66 2123ft 0kts
12-Nov-19 07:56 36.080252 -115.147361 66 2123ft 0kts
12-Nov-19 07:57 36.080252 -115.147361 66 2123ft 0kts
12-Nov-19 07:59 36.080252 -115.147361 66 2123ft 0kts
12-Nov-19 08:00 36.080252 -115.147361 66 2123ft 0kts
12-Nov-19 08:01 36.080252 -115.147361 66 2123ft 0kts
12-Nov-19 08:02 36.080252 -115.147361 66 2123ft 0kts
12-Nov-19 08:03 36.080252 -115.147361 66 2123ft 0kts
12-Nov-19 08:04 36.080252 -115.147361 66 2123ft 0kts
12-Nov-19 08:05 36.080252 -115.147361 66 2123ft 0kts
12-Nov-19 08:06 36.080252 -115.147361 66 2123ft 0kts
12-Nov-19 08:07 36.080252 -115.147361 66 2123ft 0kts
12-Nov-19 08:08 36.080252 -115.147361 66 2123ft 0kts
12-Nov-19 08:09 36.080252 -115.147361 66 2123ft 0kts
12-Nov-19 08:10 36.080252 -115.147361 66 2123ft 0kts
12-Nov-19 08:11 36.080252 -115.147361 66 2123ft 0kts
12-Nov-19 08:12 36.080252 -115.147361 66 2123ft 0kts
12-Nov-19 08:13 36.080252 -115.147361 66 2123ft 0kts
12-Nov-19 08:14 36.080252 -115.147361 66 2123ft 0kts
12-Nov-19 08:14 36.080252 -115.147361 66 2123ft 0kts
12-Nov-19 08:16 36.080252 -115.147361 66 2123ft 0kts
12-Nov-19 08:17 36.080252 -115.147361 66 2123ft 0kts
12-Nov-19 08:17 36.080252 -115.147361 66 2123ft 0kts
12-Nov-19 08:19 36.080252 -115.147361 66 2123ft 0kts
12-Nov-19 08:19 36.080252 -115.147361 66 2123ft 0kts
12-Nov-19 08:20 36.080252 -115.147361 66 2123ft 0kts
12-Nov-19 08:22 36.080178 -115.147575 66 2123ft 2kts
12-Nov-19 08:22 36.080049 -115.148212 111 2123ft 0kts
12-Nov-19 08:23 36.080049 -115.148212 111 2123ft 0kts
12-Nov-19 08:24 36.080049 -115.148212 111 2123ft 0kts
12-Nov-19 08:25 36.080049 -115.148212 111 2123ft 0kts
12-Nov-19 08:26 36.080049 -115.148212 111 2123ft 0kts
12-Nov-19 08:27 36.080049 -115.148212 111 2123ft 0kts
12-Nov-19 08:28 36.080049 -115.148212 111 2123ft 0kts
12-Nov-19 08:29 36.080048 -115.148211 111 2122ft 0kts
12-Nov-19 08:30 36.079461 -115.147946 164 2122ft 0kts
12-Nov-19 08:31 36.078585 -115.146176 92 2122ft 2kts
12-Nov-19 08:32 36.078303 -115.142123 89 2122ft 11kts
12-Nov-19 08:33 36.077550 -115.139961 87 2123ft 15kts
12-Nov-19 08:34 36.077478 -115.136098 88 2122ft 4kts
12-Nov-19 08:35 36.077559 -115.131360 91 2123ft 18kts
12-Nov-19 08:36 36.077514 -115.125785 89 2122ft 8kts
12-Nov-19 08:37 36.077517 -115.123981 89 2123ft 11kts
12-Nov-19 08:38 36.077520 -115.122260 89 2122ft 1kts
12-Nov-19 08:39 36.077272 -115.121281 172 2122ft 0kts
12-Nov-19 08:40 36.076343 -115.122186 268 2123ft 9kts
12-Nov-19 08:41 36.076368 -115.135370 270 2123ft 92kts
12-Nov-19 08:42 36.076227 -115.191826 270 3910ft 187kts
12-Nov-19 08:43 36.070033 -115.254590 228 6512ft 216kts
12-Nov-19 08:44 36.000940 -115.287784 201 7019ft 284kts
12-Nov-19 08:45 35.938045 -115.341453 226 8337ft 286kts
12-Nov-19 08:46 35.889685 -115.417954 260 9068ft 285kts
12-Nov-19 08:47 35.887904 -115.523644 274 11002ft 350kts
12-Nov-19 08:48 35.890509 -115.651163 274 13534ft 383kts
12-Nov-19 08:49 35.929056 -115.771136 324 15316ft 419kts
12-Nov-19 08:50 36.016049 -115.850806 319 17948ft 428kts
12-Nov-19 08:51 36.112812 -115.942637 324 20286ft 444kts
12-Nov-19 08:52 36.212833 -116.037122 325 22777ft 445kts
12-Nov-19 08:53 36.308702 -116.126748 325 25797ft 425kts
12-Nov-19 08:54 36.403355 -116.215978 318 27656ft 431kts
12-Nov-19 08:55 36.494001 -116.302272 326 30841ft 399kts
12-Nov-19 08:56 36.581454 -116.385000 326 32826ft 395kts
12-Nov-19 08:57 36.668696 -116.467976 326 34429ft 396kts
12-Nov-19 08:58 36.758020 -116.553481 327 35774ft 401kts
12-Nov-19 08:59 36.846326 -116.637903 326 37267ft 398kts
12-Nov-19 09:00 36.934422 -116.722701 327 38112ft 407kts
12-Nov-19 09:01 37.027136 -116.811930 327 38229ft 435kts
12-Nov-19 09:02 37.125144 -116.906678 327 38236ft 451kts
12-Nov-19 09:03 37.225485 -117.003023 324 38262ft 463kts
12-Nov-19 09:04 37.325359 -117.100046 318 38318ft 421kts
12-Nov-19 09:05 37.411390 -117.184991 319 38319ft 382kts
12-Nov-19 09:06 37.496201 -117.268751 324 38365ft 390kts
12-Nov-19 09:07 37.581706 -117.352518 324 38372ft 389kts
12-Nov-19 09:08 37.666906 -117.436424 324 38371ft 389kts
12-Nov-19 09:09 37.752327 -117.520814 324 38372ft 389kts
12-Nov-19 09:10 37.837697 -117.605239 324 38371ft 389kts
12-Nov-19 09:11 37.922613 -117.689851 324 38370ft 389kts
12-Nov-19 09:12 38.007676 -117.775162 322 38367ft 389kts
12-Nov-19 09:13 38.086826 -117.869772 319 38370ft 391kts
12-Nov-19 09:14 38.165617 -117.965315 319 38371ft 390kts
12-Nov-19 09:15 38.243944 -118.060130 319 38370ft 390kts
12-Nov-19 09:16 38.323101 -118.155209 319 38367ft 389kts
12-Nov-19 09:17 38.401298 -118.250087 318 38359ft 388kts
12-Nov-19 09:18 38.479460 -118.345432 318 38362ft 389kts
12-Nov-19 09:19 38.557286 -118.440522 318 38344ft 386kts
12-Nov-19 09:20 38.634991 -118.535884 318 38349ft 387kts
12-Nov-19 09:21 38.712466 -118.631289 318 38319ft 386kts
12-Nov-19 09:22 38.790099 -118.726461 318 38307ft 386kts
12-Nov-19 09:23 38.867439 -118.821992 318 38300ft 386kts
12-Nov-19 09:24 38.944389 -118.917665 317 38211ft 384kts
12-Nov-19 09:25 39.031764 -118.995047 332 38222ft 382kts
12-Nov-19 09:26 39.126464 -119.059707 332 38204ft 395kts
12-Nov-19 09:27 39.226353 -119.127601 331 38188ft 411kts
12-Nov-19 09:28 39.327446 -119.196127 331 38219ft 410kts
12-Nov-19 09:29 39.426087 -119.262947 331 38271ft 409kts
12-Nov-19 09:30 39.516764 -119.324666 330 38328ft 408kts
12-Nov-19 09:31 39.616216 -119.392563 330 38347ft 402kts
12-Nov-19 09:32 39.715487 -119.460583 330 38348ft 403kts
12-Nov-19 09:33 39.814393 -119.528578 330 38348ft 403kts
12-Nov-19 09:34 39.913680 -119.597063 330 38348ft 403kts
12-Nov-19 09:35 40.012707 -119.665595 330 38348ft 403kts
12-Nov-19 09:36 40.111524 -119.734209 330 38348ft 403kts
12-Nov-19 09:37 40.210354 -119.803056 330 38348ft 403kts
12-Nov-19 09:38 40.309495 -119.872343 329 38346ft 403kts
12-Nov-19 09:39 40.408480 -119.941779 329 38348ft 403kts
12-Nov-19 09:40 40.507299 -120.011268 329 38340ft 405kts
12-Nov-19 09:41 40.606609 -120.081420 328 38334ft 405kts
12-Nov-19 09:42 40.706190 -120.151983 328 38329ft 406kts
12-Nov-19 09:43 40.805652 -120.222691 328 38324ft 406kts
12-Nov-19 09:44 40.904991 -120.293562 328 38309ft 407kts
12-Nov-19 09:45 41.004961 -120.365124 328 38296ft 408kts
12-Nov-19 09:46 41.104680 -120.436756 328 38293ft 408kts
12-Nov-19 09:47 41.204410 -120.508644 327 38288ft 408kts
12-Nov-19 09:48 41.304200 -120.580828 327 38289ft 408kts
12-Nov-19 09:49 41.403731 -120.653077 327 38289ft 408kts
12-Nov-19 09:50 41.503517 -120.725769 327 38289ft 408kts
12-Nov-19 09:51 41.602786 -120.798337 327 38289ft 407kts
12-Nov-19 09:52 41.702381 -120.871403 327 38289ft 407kts
12-Nov-19 09:53 41.801795 -120.944596 327 38289ft 407kts
12-Nov-19 09:54 41.901064 -121.017943 327 38289ft 407kts
12-Nov-19 09:55 42.000133 -121.091408 327 38289ft 407kts
12-Nov-19 09:56 42.099710 -121.165514 327 38289ft 407kts
12-Nov-19 09:57 42.198713 -121.239459 327 38289ft 407kts
12-Nov-19 09:58 42.297796 -121.313734 327 38289ft 407kts
12-Nov-19 09:59 42.397019 -121.388385 327 38288ft 407kts
12-Nov-19 10:00 42.496135 -121.463228 327 38289ft 407kts
12-Nov-19 10:01 42.594878 -121.538064 327 38287ft 407kts
12-Nov-19 10:02 42.693929 -121.613411 327 38289ft 407kts
12-Nov-19 10:03 42.792869 -121.688700 326 38262ft 408kts
12-Nov-19 10:04 42.891708 -121.764544 326 38260ft 407kts
12-Nov-19 10:05 42.990532 -121.840689 326 38248ft 408kts
12-Nov-19 10:06 43.089371 -121.917138 326 38236ft 408kts
12-Nov-19 10:07 43.188023 -121.993822 326 38228ft 408kts
12-Nov-19 10:08 43.286775 -122.070343 326 38224ft 408kts
12-Nov-19 10:09 43.385556 -122.147608 326 38214ft 408kts
12-Nov-19 10:10 43.484167 -122.225122 326 38216ft 408kts
12-Nov-19 10:11 43.582462 -122.302374 326 38214ft 408kts
12-Nov-19 10:12 43.681175 -122.380300 326 38221ft 408kts
12-Nov-19 10:13 43.779942 -122.458583 326 38221ft 408kts
12-Nov-19 10:14 43.878510 -122.536445 326 38220ft 408kts
12-Nov-19 10:16 43.977223 -122.614847 326 37546ft 410kts
12-Nov-19 10:17 44.075935 -122.693972 324 34525ft 411kts
12-Nov-19 10:18 44.185358 -122.744515 351 31598ft 434kts
12-Nov-19 10:19 44.302873 -122.737907 354 29511ft 414kts
12-Nov-19 10:20 44.417630 -122.726776 355 26841ft 407kts
12-Nov-19 10:21 44.528868 -122.715750 356 24362ft 397kts
12-Nov-19 10:22 44.634697 -122.705195 355 22769ft 367kts
12-Nov-19 10:23 44.735462 -122.695059 355 20707ft 358kts
12-Nov-19 10:24 44.833638 -122.685179 354 18699ft 348kts
12-Nov-19 10:25 44.929017 -122.675565 354 16673ft 340kts
12-Nov-19 10:26 45.017891 -122.666599 354 15386ft 309kts
12-Nov-19 10:27 45.102784 -122.657997 354 13100ft 301kts
12-Nov-19 10:28 45.184844 -122.649594 353 11121ft 284kts
12-Nov-19 10:29 45.261748 -122.650253 334 9465ft 262kts
12-Nov-19 10:30 45.328479 -122.686163 329 8151ft 254kts
12-Nov-19 10:31 45.393772 -122.722069 330 6844ft 249kts
12-Nov-19 10:32 45.458321 -122.757507 330 5974ft 240kts
12-Nov-19 10:33 45.517278 -122.790005 330 5151ft 218kts
12-Nov-19 10:34 45.573422 -122.820674 331 4134ft 213kts
12-Nov-19 10:34 45.618932 -122.834968 4 3333ft 190kts
12-Nov-19 10:36 45.645687 -122.767072 92 2441ft 177kts
12-Nov-19 10:37 45.631971 -122.714425 121 1726ft 131kts
12-Nov-19 10:37 45.616511 -122.675605 124 922ft 133kts
12-Nov-19 10:38 45.599236 -122.632058 120 242ft 127kts
12-Nov-19 10:40 45.582039 -122.587610 116 26ft 50kts
12-Nov-19 10:40 45.581283 -122.583544 29 26ft 0kts
12-Nov-19 10:41 45.581283 -122.583544 29 26ft 0kts
12-Nov-19 10:42 45.581283 -122.583544 29 26ft 0kts
12-Nov-19 10:43 45.582276 -122.584787 296 26ft 18kts
12-Nov-19 10:44 45.586788 -122.594632 300 26ft 31kts
12-Nov-19 10:45 45.589726 -122.600813 12 26ft 8kts
12-Nov-19 10:46 45.591220 -122.599678 67 26ft 7kts
12-Nov-19 10:47 45.590847 -122.597331 120 26ft 8kts
12-Nov-19 10:48 45.590038 -122.597081 209 26ft 4kts
12-Nov-19 10:49 45.589990 -122.597119 209 26ft 0kts
12-Nov-19 10:50 45.589990 -122.597119 209 26ft 0kts
12-Nov-19 10:51 45.589990 -122.597119 209 26ft 0kts

Navigation Log

Ident Type
Flight plan parsing failed, navigation log unavailable